createdAt,value
2022-09-03T00:06:17.691Z,3.20
2022-09-03T00:09:00.104Z,3.53
2022-09-03T00:11:52.592Z,2.90
2022-09-03T00:14:39.374Z,3.10
2022-09-03T00:17:16.711Z,3.25
2022-09-03T00:19:58.217Z,2.63
2022-09-03T00:22:40.913Z,3.17
2022-09-03T00:25:14.348Z,3.20
2022-09-03T00:27:45.717Z,3.50
2022-09-03T00:30:17.255Z,2.90
2022-09-03T00:37:56.668Z,4.00
2022-09-03T00:40:47.491Z,5.22
2022-09-03T00:43:48.678Z,5.03
2022-09-03T00:46:30.703Z,4.20
2022-09-03T00:49:39.950Z,4.40
2022-09-03T00:52:35.251Z,3.83
2022-09-03T00:55:16.813Z,3.30
2022-09-03T00:57:53.592Z,3.70
2022-09-03T01:00:21.795Z,4.15
2022-09-03T01:03:15.754Z,3.50
2022-09-03T01:06:05.359Z,3.67
2022-09-03T01:09:12.212Z,3.42
2022-09-03T01:11:51.464Z,3.70
2022-09-03T01:14:38.345Z,3.33
2022-09-03T01:17:17.321Z,3.17
2022-09-03T01:20:18.468Z,3.03
2022-09-03T01:23:14.461Z,2.70
2022-09-03T01:26:18.778Z,2.75
2022-09-03T01:29:23.423Z,3.10
2022-09-03T01:32:09.004Z,3.10
2022-09-03T01:35:02.570Z,3.13
2022-09-03T01:37:40.253Z,2.90
2022-09-03T01:40:26.625Z,2.58
2022-09-03T01:43:34.022Z,2.80
2022-09-03T01:46:19.928Z,2.75
2022-09-03T01:48:54.070Z,2.70
2022-09-03T01:51:24.757Z,2.83
2022-09-03T01:54:21.207Z,2.80
2022-09-03T01:57:35.902Z,2.67
2022-09-03T02:00:13.661Z,3.92
2022-09-03T02:02:48.219Z,3.90
2022-09-03T02:05:27.766Z,2.70
2022-09-03T02:13:28.711Z,2.28
2022-09-03T02:16:20.321Z,2.53
2022-09-03T02:18:58.903Z,2.78
2022-09-03T02:21:32.543Z,2.70
2022-09-03T02:24:00.980Z,2.42
2022-09-03T02:26:28.795Z,2.65
2022-09-03T02:28:58.487Z,2.53
2022-09-03T02:31:26.934Z,3.20
2022-09-03T02:33:57.473Z,2.70
2022-09-03T02:36:31.889Z,2.70
2022-09-03T02:38:59.873Z,2.97
2022-09-03T02:41:27.716Z,2.72
2022-09-03T02:44:04.763Z,2.47
2022-09-03T02:46:44.923Z,2.75
2022-09-03T02:49:12.877Z,2.33
2022-09-03T02:51:43.084Z,2.90
2022-09-03T02:54:11.893Z,2.88
2022-09-03T02:56:39.851Z,2.92
2022-09-03T02:59:09.392Z,3.20
2022-09-03T03:01:37.940Z,3.53
2022-09-03T03:04:06.053Z,3.35
2022-09-03T03:06:33.929Z,3.22
2022-09-03T03:09:04.370Z,2.55
2022-09-03T03:11:32.319Z,2.65
2022-09-03T03:14:00.069Z,2.55
2022-09-03T03:16:29.402Z,2.55
2022-09-03T03:18:57.959Z,3.53
2022-09-03T03:21:25.985Z,2.90
2022-09-03T03:23:53.801Z,2.67
2022-09-03T03:26:24.339Z,3.10
2022-09-03T03:28:59.621Z,3.08
2022-09-03T03:31:27.855Z,2.95
2022-09-03T03:34:05.770Z,3.10
2022-09-03T03:36:34.199Z,2.80
2022-09-03T03:39:03.228Z,2.72
2022-09-03T03:41:33.318Z,2.80
2022-09-03T03:44:04.265Z,2.45
2022-09-03T03:46:40.381Z,2.65
2022-09-03T03:49:09.149Z,2.80
2022-09-03T03:51:37.369Z,3.60
2022-09-03T03:54:05.871Z,2.65
2022-09-03T03:56:34.899Z,2.72
2022-09-03T03:59:03.145Z,2.97
2022-09-03T04:01:31.403Z,2.55
2022-09-03T04:04:00.396Z,3.40
2022-09-03T04:06:28.868Z,3.05
2022-09-03T04:08:56.941Z,2.42
2022-09-03T04:11:25.243Z,2.35
2022-09-03T04:13:53.777Z,2.60
2022-09-03T04:16:26.527Z,2.85
2022-09-03T04:18:55.770Z,3.00
2022-09-03T04:21:26.640Z,2.45
2022-09-03T04:23:58.085Z,2.80
2022-09-03T04:26:32.449Z,3.30
2022-09-03T04:29:03.646Z,3.20
2022-09-03T04:31:33.114Z,3.10
2022-09-03T04:34:01.345Z,2.72
2022-09-03T04:36:31.832Z,3.30
2022-09-03T04:39:01.790Z,3.17
2022-09-03T04:41:31.563Z,3.50
2022-09-03T04:43:59.987Z,3.28
2022-09-03T04:46:33.725Z,3.63
2022-09-03T04:49:02.576Z,2.67
2022-09-03T04:51:31.281Z,2.90
2022-09-03T04:54:01.417Z,2.83
2022-09-03T04:56:32.290Z,2.58
2022-09-03T04:59:03.502Z,2.78
2022-09-03T05:05:57.480Z,2.92
2022-09-03T05:08:55.617Z,2.67
2022-09-03T05:11:24.807Z,2.63
2022-09-03T05:13:55.066Z,10.80
2022-09-03T05:16:24.049Z,7.22
2022-09-03T05:18:56.553Z,5.88
2022-09-03T05:21:24.639Z,5.40
2022-09-03T05:23:53.389Z,5.72
2022-09-03T05:26:24.688Z,5.15
2022-09-03T05:29:05.983Z,3.17
2022-09-03T05:31:36.191Z,3.22
2022-09-03T05:34:05.341Z,3.45
2022-09-03T05:36:35.673Z,2.70
2022-09-03T05:39:05.008Z,3.70
2022-09-03T05:41:34.129Z,2.67
2022-09-03T05:44:02.542Z,2.65
2022-09-03T05:47:45.106Z,2.42
2022-09-03T05:50:12.897Z,2.70
2022-09-03T05:52:40.869Z,2.80
2022-09-03T05:55:13.447Z,2.78
2022-09-03T05:57:41.867Z,2.90
2022-09-03T06:00:10.882Z,3.15
2022-09-03T06:02:40.062Z,2.38
2022-09-03T06:05:08.288Z,2.58
2022-09-03T06:07:36.331Z,2.40
2022-09-03T06:10:04.854Z,2.60
2022-09-03T06:12:32.659Z,2.45
2022-09-03T06:15:51.221Z,2.20
2022-09-03T06:18:19.048Z,2.08
2022-09-03T06:20:57.933Z,2.47
2022-09-03T06:23:26.703Z,2.22
2022-09-03T06:26:21.001Z,2.50
2022-09-03T06:28:50.691Z,2.05
2022-09-03T06:31:19.810Z,2.40
2022-09-03T06:33:48.173Z,2.45
2022-09-03T06:36:19.734Z,2.42
2022-09-03T06:38:47.832Z,2.58
2022-09-03T06:41:21.529Z,2.50
2022-09-03T06:43:49.585Z,2.20
2022-09-03T06:46:20.049Z,2.40
2022-09-03T06:48:48.315Z,3.00
2022-09-03T06:51:21.898Z,2.50
2022-09-03T06:53:51.817Z,2.63
2022-09-03T06:56:32.377Z,2.38
2022-09-03T06:59:06.670Z,2.53
2022-09-03T07:01:35.770Z,2.28
2022-09-03T07:04:05.594Z,2.63
2022-09-03T07:06:37.320Z,2.95
2022-09-03T07:09:08.551Z,2.83
2022-09-03T07:11:37.797Z,2.45
2022-09-03T07:14:05.780Z,2.45
2022-09-03T07:16:36.334Z,2.78
2022-09-03T07:19:06.134Z,2.33
2022-09-03T07:21:36.939Z,2.25
2022-09-03T07:24:06.198Z,2.50
2022-09-03T07:26:40.004Z,2.13
2022-09-03T07:29:08.139Z,2.55
2022-09-03T07:31:38.634Z,2.28
2022-09-03T07:34:10.026Z,2.00
2022-09-03T07:36:43.146Z,2.72
2022-09-03T07:39:12.678Z,2.15
2022-09-03T07:41:44.129Z,2.40
2022-09-03T07:44:15.388Z,2.33
2022-09-03T07:46:45.656Z,2.20
2022-09-03T07:49:14.127Z,2.70
2022-09-03T07:51:42.003Z,2.42
2022-09-03T07:54:11.706Z,2.55
2022-09-03T07:56:41.181Z,2.50
2022-09-03T07:59:09.962Z,2.15
2022-09-03T08:01:41.218Z,2.33
2022-09-03T08:04:11.072Z,2.38
2022-09-03T08:06:40.142Z,2.17
2022-09-03T08:09:11.535Z,2.30
2022-09-03T08:11:41.651Z,2.30
2022-09-03T08:14:11.705Z,2.22
2022-09-03T08:16:42.408Z,2.25
2022-09-03T08:19:12.084Z,2.03
2022-09-03T08:21:42.268Z,2.10
2022-09-03T08:24:11.633Z,2.30
2022-09-03T08:26:45.263Z,2.50
2022-09-03T08:29:14.311Z,2.35
2022-09-03T08:31:43.987Z,2.47
2022-09-03T08:34:13.330Z,2.60
2022-09-03T08:36:44.545Z,2.30
2022-09-03T08:39:12.914Z,2.50
2022-09-03T08:42:03.726Z,2.20
2022-09-03T08:44:49.400Z,2.60
2022-09-03T08:47:32.393Z,2.08
2022-09-03T08:50:24.498Z,1.90
2022-09-03T08:53:23.312Z,2.00
2022-09-03T08:55:53.879Z,2.33
2022-09-03T08:58:25.968Z,2.03
2022-09-03T09:01:03.460Z,2.30
2022-09-03T09:03:31.426Z,2.92
2022-09-03T09:06:17.712Z,2.20
2022-09-03T09:08:54.647Z,2.42
2022-09-03T09:11:28.472Z,2.47
2022-09-03T09:14:22.856Z,2.80
2022-09-03T09:17:04.390Z,2.65
2022-09-03T09:19:42.415Z,2.22
2022-09-03T09:22:20.046Z,2.33
2022-09-03T09:24:50.704Z,2.40
2022-09-03T09:27:18.545Z,3.10
2022-09-03T09:29:49.767Z,2.90
2022-09-03T09:35:16.963Z,2.88
2022-09-03T09:38:00.294Z,2.70
2022-09-03T09:40:37.566Z,2.72
2022-09-03T09:43:16.218Z,2.65
2022-09-03T09:45:46.908Z,2.00
2022-09-03T09:48:17.629Z,2.63
2022-09-03T09:50:45.951Z,2.33
2022-09-03T09:53:18.140Z,2.40
2022-09-03T09:55:55.143Z,2.30
2022-09-03T09:58:25.566Z,3.08
2022-09-03T10:01:22.712Z,2.50
2022-09-03T10:03:59.273Z,2.55
2022-09-03T10:06:50.679Z,2.58
2022-09-03T10:09:23.359Z,3.30
2022-09-03T10:12:20.754Z,2.83
2022-09-03T10:15:24.604Z,2.25
2022-09-03T10:17:52.831Z,2.25
2022-09-03T10:20:33.850Z,2.33
2022-09-03T10:23:19.542Z,2.45
2022-09-03T10:26:13.438Z,2.15
2022-09-03T10:28:42.907Z,2.00
2022-09-03T10:31:30.225Z,2.08
2022-09-03T10:34:08.093Z,2.08
2022-09-03T10:37:02.709Z,1.80
2022-09-03T10:40:15.266Z,2.33
2022-09-03T10:43:08.262Z,2.40
2022-09-03T10:46:06.207Z,2.22
2022-09-03T10:48:34.157Z,2.30
2022-09-03T10:51:22.864Z,2.33
2022-09-03T10:54:09.602Z,2.50
2022-09-03T10:57:03.513Z,2.28
2022-09-03T10:59:51.419Z,2.70
2022-09-03T11:02:41.456Z,2.92
2022-09-03T11:05:29.893Z,2.60
2022-09-03T11:08:07.629Z,2.90
2022-09-03T11:10:45.137Z,3.50
2022-09-03T11:13:29.123Z,3.97
2022-09-03T11:15:56.945Z,4.45
2022-09-03T11:18:35.400Z,4.97
2022-09-03T11:21:11.924Z,5.85
2022-09-03T11:23:55.362Z,6.65
2022-09-03T11:26:26.390Z,6.30
2022-09-03T11:29:00.676Z,7.65
2022-09-03T11:32:08.111Z,7.07
2022-09-03T11:34:48.504Z,7.15
2022-09-03T11:37:28.347Z,7.07
2022-09-03T11:40:20.201Z,5.60
2022-09-03T11:42:48.449Z,5.10
2022-09-03T11:45:37.869Z,4.90
2022-09-03T11:48:43.824Z,5.53
2022-09-03T11:51:33.325Z,4.35
2022-09-03T11:54:07.276Z,4.35
2022-09-03T11:56:36.767Z,4.00
2022-09-03T11:59:18.523Z,3.58
2022-09-03T12:02:10.350Z,3.63
2022-09-03T12:04:50.847Z,4.07
2022-09-03T12:07:36.280Z,4.00
2022-09-03T12:10:51.751Z,3.60
2022-09-03T12:13:51.438Z,3.50
2022-09-03T12:20:29.234Z,3.25
2022-09-03T12:22:57.256Z,3.17
2022-09-03T12:25:25.091Z,3.03
2022-09-03T12:27:53.713Z,2.95
2022-09-03T12:30:25.767Z,3.05
2022-09-03T12:33:05.301Z,3.50
2022-09-03T12:38:29.966Z,3.25
2022-09-03T12:43:52.621Z,2.72
2022-09-03T12:46:33.233Z,3.20
2022-09-03T12:52:13.931Z,2.97
2022-09-03T12:54:59.967Z,3.22
2022-09-03T12:57:35.521Z,3.67
2022-09-03T13:00:07.909Z,3.30
2022-09-03T13:02:42.393Z,3.05
2022-09-03T13:05:18.096Z,2.30
2022-09-03T13:07:53.191Z,2.60
2022-09-03T13:10:27.815Z,2.60
2022-09-03T13:13:04.025Z,2.10
2022-09-03T13:15:31.964Z,2.42
2022-09-03T13:18:00.155Z,2.20
2022-09-03T13:20:36.149Z,2.13
2022-09-03T13:23:25.098Z,2.25
2022-09-03T13:26:06.123Z,2.28
2022-09-03T13:28:58.407Z,1.80
2022-09-03T13:31:38.861Z,2.10
2022-09-03T13:34:32.509Z,2.40
2022-09-03T13:37:19.874Z,1.85
2022-09-03T13:39:53.350Z,2.30
2022-09-03T13:42:33.013Z,2.00
2022-09-03T13:45:26.014Z,1.73
2022-09-03T13:51:00.114Z,2.30
2022-09-03T13:53:37.353Z,2.20
2022-09-03T13:56:17.570Z,2.25
2022-09-03T13:58:51.201Z,2.22
2022-09-03T14:01:34.560Z,2.15
2022-09-03T14:04:17.679Z,2.10
2022-09-03T14:07:06.545Z,2.17
2022-09-03T14:10:01.576Z,2.15
2022-09-03T14:12:49.569Z,2.20
2022-09-03T14:15:23.185Z,1.88
2022-09-03T14:18:12.978Z,1.98
2022-09-03T14:21:02.318Z,2.28
2022-09-03T14:23:33.419Z,2.22
2022-09-03T14:26:05.067Z,2.40
2022-09-03T14:29:23.492Z,2.40
2022-09-03T14:31:52.533Z,2.70
2022-09-03T14:34:20.489Z,2.72
2022-09-03T14:37:00.348Z,2.63
2022-09-03T14:39:32.736Z,3.78
2022-09-03T14:42:07.444Z,2.92
2022-09-03T14:45:22.068Z,2.22
2022-09-03T14:48:02.186Z,2.60
2022-09-03T14:50:57.924Z,2.20
2022-09-03T14:53:55.780Z,2.47
2022-09-03T14:56:34.617Z,2.40
2022-09-03T14:59:05.449Z,2.20
2022-09-03T15:01:39.435Z,3.72
2022-09-03T15:04:56.121Z,2.42
2022-09-03T15:07:27.830Z,2.92
2022-09-03T15:10:13.807Z,2.50
2022-09-03T15:13:07.650Z,2.55
2022-09-03T15:15:41.846Z,2.70
2022-09-03T15:18:27.619Z,2.58
2022-09-03T15:21:13.852Z,2.63
2022-09-03T15:23:55.993Z,2.88
2022-09-03T15:26:38.940Z,3.00
2022-09-03T15:29:15.816Z,3.97
2022-09-03T15:32:08.298Z,3.20
2022-09-03T15:35:09.941Z,4.13
2022-09-03T15:37:46.078Z,2.63
2022-09-03T15:40:25.739Z,3.03
2022-09-03T15:43:15.932Z,2.78
2022-09-03T15:45:57.293Z,3.00
2022-09-03T15:48:48.871Z,3.17
2022-09-03T15:52:07.513Z,3.50
2022-09-03T15:55:03.920Z,2.47
2022-09-03T15:57:47.366Z,3.10
2022-09-03T16:00:21.264Z,3.03
2022-09-03T16:03:10.239Z,3.17
2022-09-03T16:05:49.459Z,3.40
2022-09-03T16:08:24.095Z,3.00
2022-09-03T16:11:01.907Z,2.90
2022-09-03T16:13:55.943Z,3.88
2022-09-03T16:19:28.139Z,3.35
2022-09-03T16:22:00.558Z,3.35
2022-09-03T16:24:49.995Z,2.90
2022-09-03T16:27:21.792Z,3.10
2022-09-03T16:30:10.775Z,3.40
2022-09-03T16:33:09.586Z,3.72
2022-09-03T16:36:23.291Z,2.90
2022-09-03T16:38:55.151Z,3.00
2022-09-03T16:41:56.206Z,3.20
2022-09-03T16:44:32.584Z,3.55
2022-09-03T16:47:22.005Z,2.63
2022-09-03T16:50:14.198Z,3.40
2022-09-03T16:53:20.335Z,3.28
2022-09-03T16:56:02.952Z,3.47
2022-09-03T16:59:00.670Z,3.10
2022-09-03T17:01:46.345Z,3.40
2022-09-03T17:04:35.585Z,3.67
2022-09-03T17:07:19.340Z,4.05
2022-09-03T17:10:13.860Z,3.50
2022-09-03T17:13:03.501Z,7.00
2022-09-03T17:15:40.618Z,11.13
2022-09-03T17:18:24.656Z,16.25
2022-09-03T17:21:14.326Z,16.88
2022-09-03T17:24:02.699Z,10.02
2022-09-03T17:27:04.211Z,6.38
2022-09-03T17:29:44.280Z,5.82
2022-09-03T17:32:22.936Z,5.50
2022-09-03T17:35:17.079Z,5.90
2022-09-03T17:38:13.698Z,5.70
2022-09-03T17:41:05.713Z,5.50
2022-09-03T17:44:11.309Z,5.85
2022-09-03T17:46:50.497Z,5.88
2022-09-03T17:49:27.192Z,5.93
2022-09-03T17:52:07.383Z,6.13
2022-09-03T17:54:41.679Z,5.65
2022-09-03T17:57:30.777Z,13.50
2022-09-03T18:00:08.787Z,12.73
2022-09-03T18:02:45.034Z,10.98
2022-09-03T18:05:24.619Z,7.63
2022-09-03T18:08:14.112Z,6.88
2022-09-03T18:11:00.422Z,7.55
2022-09-03T18:13:46.591Z,7.38
2022-09-03T18:16:26.378Z,8.65
2022-09-03T18:19:02.938Z,7.60
2022-09-03T18:21:54.582Z,7.43
2022-09-03T18:24:46.718Z,5.43
2022-09-03T18:27:45.893Z,5.88
2022-09-03T18:30:35.241Z,7.65
2022-09-03T18:33:22.034Z,7.72
2022-09-03T18:36:08.484Z,8.80
2022-09-03T18:38:56.625Z,21.23
2022-09-03T18:42:01.660Z,21.33
2022-09-03T18:45:21.692Z,17.88
2022-09-03T18:48:26.776Z,10.15
2022-09-03T18:51:16.074Z,5.93
2022-09-03T18:54:16.409Z,9.40
2022-09-03T18:57:09.688Z,6.85
2022-09-03T19:00:28.622Z,8.43
2022-09-03T19:03:42.253Z,6.35
2022-09-03T19:06:31.656Z,6.50
2022-09-03T19:09:26.852Z,6.25
2022-09-03T19:12:59.244Z,5.43
2022-09-03T19:15:51.199Z,4.47
2022-09-03T19:19:10.805Z,4.80
2022-09-03T19:22:22.481Z,4.60
2022-09-03T19:25:21.597Z,3.20
2022-09-03T19:28:28.409Z,3.67
2022-09-03T19:31:42.922Z,3.63
2022-09-03T19:34:53.054Z,4.32
2022-09-03T19:38:01.139Z,4.53
2022-09-03T19:41:06.458Z,6.32
2022-09-03T19:44:09.231Z,6.45
2022-09-03T19:47:12.527Z,5.32
2022-09-03T19:50:08.630Z,5.30
2022-09-03T19:53:06.803Z,5.00
2022-09-03T19:55:56.036Z,4.55
2022-09-03T19:58:46.253Z,4.85
2022-09-03T20:01:58.214Z,3.65
2022-09-03T20:04:56.514Z,10.23
2022-09-03T20:07:43.189Z,12.93
2022-09-03T20:10:23.918Z,18.50
2022-09-03T20:13:14.845Z,6.32
2022-09-03T20:16:16.403Z,4.70
2022-09-03T20:18:55.816Z,5.57
2022-09-03T20:21:33.024Z,5.57
2022-09-03T20:24:11.375Z,4.45
2022-09-03T20:26:50.549Z,4.65
2022-09-03T20:29:30.395Z,4.70
2022-09-03T20:32:09.858Z,4.60
2022-09-03T20:35:16.725Z,4.57
2022-09-03T20:38:00.742Z,4.50
2022-09-03T20:41:13.286Z,5.55
2022-09-03T20:43:50.360Z,6.55
2022-09-03T20:46:24.172Z,6.68
2022-09-03T20:49:20.180Z,5.50
2022-09-03T20:52:06.202Z,4.72
2022-09-03T20:54:50.002Z,4.43
2022-09-03T20:57:32.630Z,4.68
2022-09-03T21:00:16.499Z,4.82
2022-09-03T21:02:59.663Z,4.90
2022-09-03T21:05:50.192Z,4.88
2022-09-03T21:08:36.701Z,5.65
2022-09-03T21:11:28.285Z,5.22
2022-09-03T21:14:03.090Z,5.97
2022-09-03T21:16:55.938Z,5.95
2022-09-03T21:19:55.517Z,5.72
2022-09-03T21:22:47.735Z,5.32
2022-09-03T21:25:24.410Z,4.88
2022-09-03T21:28:15.841Z,4.90
2022-09-03T21:30:49.562Z,4.97
2022-09-03T21:33:23.802Z,5.53
2022-09-03T21:36:03.872Z,5.70
2022-09-03T21:38:35.886Z,6.18
2022-09-03T21:41:36.550Z,6.22
2022-09-03T21:44:17.434Z,6.03
2022-09-03T21:46:54.916Z,5.68
2022-09-03T21:49:33.863Z,5.85
2022-09-03T21:52:28.016Z,4.53
2022-09-03T21:54:56.523Z,4.95
2022-09-03T21:57:49.890Z,5.93
2022-09-03T22:00:19.670Z,5.60
2022-09-03T22:02:49.577Z,5.90
2022-09-03T22:05:19.045Z,6.07
2022-09-03T22:08:14.776Z,5.47
2022-09-03T22:10:48.817Z,5.93
2022-09-03T22:13:30.141Z,6.35
2022-09-03T22:16:31.614Z,6.10
2022-09-03T22:18:59.696Z,5.88
2022-09-03T22:21:32.902Z,5.72
2022-09-03T22:24:14.752Z,6.05
2022-09-03T22:26:49.242Z,5.93
2022-09-03T22:29:47.823Z,5.70
2022-09-03T22:32:56.030Z,5.40
2022-09-03T22:35:46.545Z,4.80
2022-09-03T22:38:26.486Z,5.80
2022-09-03T22:41:17.433Z,5.10
2022-09-03T22:43:55.194Z,5.00
2022-09-03T22:46:27.148Z,6.47
2022-09-03T22:49:11.419Z,5.80
2022-09-03T22:52:12.156Z,5.30
2022-09-03T22:54:52.083Z,5.10
2022-09-03T22:57:22.898Z,4.82
2022-09-03T23:00:04.880Z,5.32
2022-09-03T23:02:33.154Z,5.53
2022-09-03T23:05:37.831Z,4.93
2022-09-03T23:08:36.745Z,5.35
2022-09-03T23:11:25.535Z,5.70
2022-09-03T23:14:12.595Z,5.35
2022-09-03T23:16:52.782Z,5.43
2022-09-03T23:19:41.672Z,5.75
2022-09-03T23:22:13.353Z,4.85
2022-09-03T23:24:49.759Z,5.20
2022-09-03T23:27:22.243Z,5.40
2022-09-03T23:30:00.260Z,5.40
2022-09-03T23:32:33.094Z,5.70
2022-09-03T23:35:06.936Z,5.10
2022-09-03T23:37:34.896Z,5.60
2022-09-03T23:40:17.688Z,5.15
2022-09-03T23:42:57.449Z,4.97
2022-09-03T23:45:25.306Z,4.88
2022-09-03T23:47:58.816Z,4.80
2022-09-03T23:50:26.665Z,5.18
2022-09-03T23:53:22.993Z,5.35
2022-09-03T23:55:59.790Z,5.53
2022-09-03T23:58:58.477Z,6.00
